sensor_id;sensor_type;location;lat;lon;timestamp;P1;durP1;ratioP1;P2;durP2;ratioP2
66927;SDS011;59882;45.624;11.698;2023-03-14T00:02:06;39.63;;;25.45;;
66927;SDS011;59882;45.624;11.698;2023-03-14T00:04:31;40.80;;;26.13;;
66927;SDS011;59882;45.624;11.698;2023-03-14T00:06:57;40.23;;;24.33;;
66927;SDS011;59882;45.624;11.698;2023-03-14T00:09:22;37.67;;;24.50;;
66927;SDS011;59882;45.624;11.698;2023-03-14T00:11:48;35.37;;;25.00;;
66927;SDS011;59882;45.624;11.698;2023-03-14T00:14:14;35.92;;;24.60;;
66927;SDS011;59882;45.624;11.698;2023-03-14T00:16:40;36.13;;;24.92;;
66927;SDS011;59882;45.624;11.698;2023-03-14T00:19:06;37.70;;;25.53;;
66927;SDS011;59882;45.624;11.698;2023-03-14T00:21:32;35.83;;;24.38;;
66927;SDS011;59882;45.624;11.698;2023-03-14T00:23:57;33.67;;;24.10;;
66927;SDS011;59882;45.624;11.698;2023-03-14T00:26:23;39.80;;;25.35;;
66927;SDS011;59882;45.624;11.698;2023-03-14T00:28:52;41.43;;;25.63;;
66927;SDS011;59882;45.624;11.698;2023-03-14T00:31:18;38.65;;;24.98;;
66927;SDS011;59882;45.624;11.698;2023-03-14T00:33:44;34.10;;;25.35;;
66927;SDS011;59882;45.624;11.698;2023-03-14T00:36:11;34.37;;;25.17;;
66927;SDS011;59882;45.624;11.698;2023-03-14T00:38:39;37.30;;;23.83;;
66927;SDS011;59882;45.624;11.698;2023-03-14T00:41:07;33.38;;;24.38;;
66927;SDS011;59882;45.624;11.698;2023-03-14T00:43:34;35.47;;;23.90;;
66927;SDS011;59882;45.624;11.698;2023-03-14T00:46:00;34.80;;;23.97;;
66927;SDS011;59882;45.624;11.698;2023-03-14T00:48:26;36.50;;;23.73;;
66927;SDS011;59882;45.624;11.698;2023-03-14T00:50:51;34.33;;;23.90;;
66927;SDS011;59882;45.624;11.698;2023-03-14T00:53:17;39.72;;;25.27;;
66927;SDS011;59882;45.624;11.698;2023-03-14T00:55:43;36.78;;;24.05;;
66927;SDS011;59882;45.624;11.698;2023-03-14T00:58:10;33.10;;;23.77;;
66927;SDS011;59882;45.624;11.698;2023-03-14T01:00:37;39.83;;;23.50;;
66927;SDS011;59882;45.624;11.698;2023-03-14T01:03:02;38.45;;;24.58;;
66927;SDS011;59882;45.624;11.698;2023-03-14T01:05:28;34.00;;;24.60;;
66927;SDS011;59882;45.624;11.698;2023-03-14T01:07:54;34.55;;;24.92;;
66927;SDS011;59882;45.624;11.698;2023-03-14T01:10:20;33.33;;;24.02;;
66927;SDS011;59882;45.624;11.698;2023-03-14T01:12:46;34.50;;;23.77;;
66927;SDS011;59882;45.624;11.698;2023-03-14T01:15:11;38.17;;;24.05;;
66927;SDS011;59882;45.624;11.698;2023-03-14T01:17:37;34.60;;;24.13;;
66927;SDS011;59882;45.624;11.698;2023-03-14T01:20:04;34.03;;;21.95;;
66927;SDS011;59882;45.624;11.698;2023-03-14T01:22:34;37.25;;;22.85;;
66927;SDS011;59882;45.624;11.698;2023-03-14T01:25:05;35.67;;;23.87;;
66927;SDS011;59882;45.624;11.698;2023-03-14T01:27:35;31.83;;;22.92;;
66927;SDS011;59882;45.624;11.698;2023-03-14T01:30:01;35.17;;;24.15;;
66927;SDS011;59882;45.624;11.698;2023-03-14T01:32:28;33.63;;;24.00;;
66927;SDS011;59882;45.624;11.698;2023-03-14T01:34:54;38.05;;;24.60;;
66927;SDS011;59882;45.624;11.698;2023-03-14T01:37:19;30.37;;;23.10;;
66927;SDS011;59882;45.624;11.698;2023-03-14T01:39:46;36.38;;;24.45;;
66927;SDS011;59882;45.624;11.698;2023-03-14T01:42:12;35.70;;;23.67;;
66927;SDS011;59882;45.624;11.698;2023-03-14T01:44:46;38.30;;;25.50;;
66927;SDS011;59882;45.624;11.698;2023-03-14T01:47:17;35.47;;;24.95;;
66927;SDS011;59882;45.624;11.698;2023-03-14T01:49:43;34.13;;;23.05;;
66927;SDS011;59882;45.624;11.698;2023-03-14T01:54:41;38.28;;;24.95;;
66927;SDS011;59882;45.624;11.698;2023-03-14T01:59:38;37.50;;;24.63;;
66927;SDS011;59882;45.624;11.698;2023-03-14T02:02:07;32.08;;;23.92;;
66927;SDS011;59882;45.624;11.698;2023-03-14T02:04:36;32.77;;;22.37;;
66927;SDS011;59882;45.624;11.698;2023-03-14T02:07:09;37.85;;;24.85;;
66927;SDS011;59882;45.624;11.698;2023-03-14T02:09:38;30.75;;;22.92;;
66927;SDS011;59882;45.624;11.698;2023-03-14T02:12:07;30.00;;;21.08;;
66927;SDS011;59882;45.624;11.698;2023-03-14T02:14:35;28.05;;;19.98;;
66927;SDS011;59882;45.624;11.698;2023-03-14T02:17:02;27.07;;;19.23;;
66927;SDS011;59882;45.624;11.698;2023-03-14T02:22:30;27.35;;;17.13;;
66927;SDS011;59882;45.624;11.698;2023-03-14T02:27:43;23.35;;;16.55;;
66927;SDS011;59882;45.624;11.698;2023-03-14T02:30:11;23.33;;;14.20;;
66927;SDS011;59882;45.624;11.698;2023-03-14T02:32:45;21.08;;;14.75;;
66927;SDS011;59882;45.624;11.698;2023-03-14T02:35:14;22.13;;;14.95;;
66927;SDS011;59882;45.624;11.698;2023-03-14T02:37:53;21.30;;;13.98;;
66927;SDS011;59882;45.624;11.698;2023-03-14T02:40:22;23.00;;;15.65;;
66927;SDS011;59882;45.624;11.698;2023-03-14T02:42:48;22.00;;;15.53;;
66927;SDS011;59882;45.624;11.698;2023-03-14T02:47:41;20.55;;;14.57;;
66927;SDS011;59882;45.624;11.698;2023-03-14T02:50:10;21.80;;;14.27;;
66927;SDS011;59882;45.624;11.698;2023-03-14T02:52:39;21.13;;;14.73;;
66927;SDS011;59882;45.624;11.698;2023-03-14T02:55:05;21.40;;;14.38;;
66927;SDS011;59882;45.624;11.698;2023-03-14T02:57:31;23.00;;;14.27;;
66927;SDS011;59882;45.624;11.698;2023-03-14T02:59:59;21.50;;;14.93;;
66927;SDS011;59882;45.624;11.698;2023-03-14T03:02:26;23.15;;;15.00;;
66927;SDS011;59882;45.624;11.698;2023-03-14T03:04:52;25.58;;;16.05;;
66927;SDS011;59882;45.624;11.698;2023-03-14T03:07:18;24.13;;;14.67;;
66927;SDS011;59882;45.624;11.698;2023-03-14T03:09:44;19.77;;;14.50;;
66927;SDS011;59882;45.624;11.698;2023-03-14T03:12:10;18.43;;;14.27;;
66927;SDS011;59882;45.624;11.698;2023-03-14T03:14:36;20.33;;;14.07;;
66927;SDS011;59882;45.624;11.698;2023-03-14T03:17:02;21.15;;;14.10;;
66927;SDS011;59882;45.624;11.698;2023-03-14T03:19:31;18.75;;;12.52;;
66927;SDS011;59882;45.624;11.698;2023-03-14T03:21:57;20.33;;;13.30;;
66927;SDS011;59882;45.624;11.698;2023-03-14T03:24:23;19.13;;;12.70;;
66927;SDS011;59882;45.624;11.698;2023-03-14T03:26:49;19.20;;;12.25;;
66927;SDS011;59882;45.624;11.698;2023-03-14T03:29:14;18.63;;;12.57;;
66927;SDS011;59882;45.624;11.698;2023-03-14T03:31:40;18.88;;;11.05;;
66927;SDS011;59882;45.624;11.698;2023-03-14T03:34:06;19.50;;;12.13;;
66927;SDS011;59882;45.624;11.698;2023-03-14T03:36:32;17.25;;;11.68;;
66927;SDS011;59882;45.624;11.698;2023-03-14T03:38:58;18.67;;;13.40;;
66927;SDS011;59882;45.624;11.698;2023-03-14T03:41:24;20.35;;;13.18;;
66927;SDS011;59882;45.624;11.698;2023-03-14T03:43:50;18.93;;;12.83;;
66927;SDS011;59882;45.624;11.698;2023-03-14T03:46:16;18.17;;;12.70;;
66927;SDS011;59882;45.624;11.698;2023-03-14T03:48:41;16.50;;;11.50;;
66927;SDS011;59882;45.624;11.698;2023-03-14T03:51:07;18.13;;;11.80;;
66927;SDS011;59882;45.624;11.698;2023-03-14T03:53:36;17.57;;;11.73;;
66927;SDS011;59882;45.624;11.698;2023-03-14T03:56:02;16.98;;;11.32;;
66927;SDS011;59882;45.624;11.698;2023-03-14T03:58:28;20.03;;;11.33;;
66927;SDS011;59882;45.624;11.698;2023-03-14T04:00:54;18.30;;;11.93;;
66927;SDS011;59882;45.624;11.698;2023-03-14T04:03:19;16.93;;;10.70;;
66927;SDS011;59882;45.624;11.698;2023-03-14T04:05:45;15.52;;;11.00;;
66927;SDS011;59882;45.624;11.698;2023-03-14T04:08:11;17.33;;;10.23;;
66927;SDS011;59882;45.624;11.698;2023-03-14T04:10:36;22.93;;;10.60;;
66927;SDS011;59882;45.624;11.698;2023-03-14T04:13:02;19.48;;;10.48;;
66927;SDS011;59882;45.624;11.698;2023-03-14T04:15:28;14.20;;;9.40;;
66927;SDS011;59882;45.624;11.698;2023-03-14T04:17:57;16.57;;;9.50;;
66927;SDS011;59882;45.624;11.698;2023-03-14T04:20:23;16.15;;;9.27;;
66927;SDS011;59882;45.624;11.698;2023-03-14T04:22:49;17.20;;;9.52;;
66927;SDS011;59882;45.624;11.698;2023-03-14T04:25:15;16.17;;;9.60;;
66927;SDS011;59882;45.624;11.698;2023-03-14T04:27:42;17.45;;;9.50;;
66927;SDS011;59882;45.624;11.698;2023-03-14T04:30:08;15.37;;;9.73;;
66927;SDS011;59882;45.624;11.698;2023-03-14T04:32:34;14.75;;;9.48;;
66927;SDS011;59882;45.624;11.698;2023-03-14T04:34:59;13.47;;;9.30;;
66927;SDS011;59882;45.624;11.698;2023-03-14T04:37:25;14.60;;;8.57;;
66927;SDS011;59882;45.624;11.698;2023-03-14T04:39:50;13.63;;;10.10;;
66927;SDS011;59882;45.624;11.698;2023-03-14T04:42:16;16.95;;;9.50;;
66927;SDS011;59882;45.624;11.698;2023-03-14T04:44:42;17.97;;;9.20;;
66927;SDS011;59882;45.624;11.698;2023-03-14T04:47:08;18.27;;;8.90;;
66927;SDS011;59882;45.624;11.698;2023-03-14T04:49:33;12.83;;;8.17;;
66927;SDS011;59882;45.624;11.698;2023-03-14T04:51:59;15.82;;;9.27;;
66927;SDS011;59882;45.624;11.698;2023-03-14T04:54:25;16.13;;;8.63;;
66927;SDS011;59882;45.624;11.698;2023-03-14T04:56:50;13.15;;;8.70;;
66927;SDS011;59882;45.624;11.698;2023-03-14T04:59:16;19.00;;;9.03;;
66927;SDS011;59882;45.624;11.698;2023-03-14T05:01:41;19.10;;;9.00;;
66927;SDS011;59882;45.624;11.698;2023-03-14T05:04:07;17.13;;;8.80;;
66927;SDS011;59882;45.624;11.698;2023-03-14T05:06:33;18.60;;;8.90;;
66927;SDS011;59882;45.624;11.698;2023-03-14T05:08:58;13.63;;;8.30;;
66927;SDS011;59882;45.624;11.698;2023-03-14T05:11:24;16.13;;;9.20;;
66927;SDS011;59882;45.624;11.698;2023-03-14T05:13:49;14.30;;;8.30;;
66927;SDS011;59882;45.624;11.698;2023-03-14T05:16:15;15.70;;;8.80;;
66927;SDS011;59882;45.624;11.698;2023-03-14T05:18:41;18.20;;;8.57;;
66927;SDS011;59882;45.624;11.698;2023-03-14T05:21:06;19.25;;;8.52;;
66927;SDS011;59882;45.624;11.698;2023-03-14T05:23:32;16.73;;;8.80;;
66927;SDS011;59882;45.624;11.698;2023-03-14T05:25:57;19.40;;;8.55;;
66927;SDS011;59882;45.624;11.698;2023-03-14T05:28:23;16.63;;;8.27;;
66927;SDS011;59882;45.624;11.698;2023-03-14T05:30:49;18.93;;;9.20;;
66927;SDS011;59882;45.624;11.698;2023-03-14T05:33:14;19.90;;;9.77;;
66927;SDS011;59882;45.624;11.698;2023-03-14T05:35:40;19.30;;;9.03;;
66927;SDS011;59882;45.624;11.698;2023-03-14T05:38:07;18.27;;;8.73;;
66927;SDS011;59882;45.624;11.698;2023-03-14T05:40:33;16.83;;;8.37;;
66927;SDS011;59882;45.624;11.698;2023-03-14T05:42:59;21.58;;;8.65;;
66927;SDS011;59882;45.624;11.698;2023-03-14T05:45:25;18.90;;;9.27;;
66927;SDS011;59882;45.624;11.698;2023-03-14T05:47:50;20.50;;;9.40;;
66927;SDS011;59882;45.624;11.698;2023-03-14T05:50:16;23.30;;;8.50;;
66927;SDS011;59882;45.624;11.698;2023-03-14T05:52:42;20.38;;;8.70;;
66927;SDS011;59882;45.624;11.698;2023-03-14T05:55:07;18.13;;;8.93;;
66927;SDS011;59882;45.624;11.698;2023-03-14T05:57:33;18.52;;;9.43;;
66927;SDS011;59882;45.624;11.698;2023-03-14T05:59:59;20.13;;;9.97;;
66927;SDS011;59882;45.624;11.698;2023-03-14T06:02:24;18.70;;;9.90;;
66927;SDS011;59882;45.624;11.698;2023-03-14T06:04:50;17.90;;;8.97;;
66927;SDS011;59882;45.624;11.698;2023-03-14T06:07:15;25.67;;;9.63;;
66927;SDS011;59882;45.624;11.698;2023-03-14T06:09:41;19.63;;;9.65;;
66927;SDS011;59882;45.624;11.698;2023-03-14T06:12:07;17.97;;;9.00;;
66927;SDS011;59882;45.624;11.698;2023-03-14T06:14:32;23.27;;;10.02;;
66927;SDS011;59882;45.624;11.698;2023-03-14T06:16:58;20.17;;;9.63;;
66927;SDS011;59882;45.624;11.698;2023-03-14T06:19:24;24.40;;;11.15;;
66927;SDS011;59882;45.624;11.698;2023-03-14T06:21:50;25.90;;;11.93;;
66927;SDS011;59882;45.624;11.698;2023-03-14T06:24:16;22.43;;;12.27;;
66927;SDS011;59882;45.624;11.698;2023-03-14T06:26:42;25.38;;;12.35;;
66927;SDS011;59882;45.624;11.698;2023-03-14T06:29:08;25.85;;;12.90;;
66927;SDS011;59882;45.624;11.698;2023-03-14T06:31:34;25.10;;;12.50;;
66927;SDS011;59882;45.624;11.698;2023-03-14T06:34:00;18.87;;;11.77;;
66927;SDS011;59882;45.624;11.698;2023-03-14T06:36:25;25.57;;;11.60;;
66927;SDS011;59882;45.624;11.698;2023-03-14T06:38:51;28.88;;;12.30;;
66927;SDS011;59882;45.624;11.698;2023-03-14T06:41:17;21.83;;;10.83;;
66927;SDS011;59882;45.624;11.698;2023-03-14T06:43:43;20.85;;;11.48;;
66927;SDS011;59882;45.624;11.698;2023-03-14T06:46:08;26.93;;;12.00;;
66927;SDS011;59882;45.624;11.698;2023-03-14T06:48:34;24.25;;;11.70;;
66927;SDS011;59882;45.624;11.698;2023-03-14T06:50:59;22.20;;;13.17;;
66927;SDS011;59882;45.624;11.698;2023-03-14T06:53:25;21.63;;;12.80;;
66927;SDS011;59882;45.624;11.698;2023-03-14T06:55:51;27.70;;;15.23;;
66927;SDS011;59882;45.624;11.698;2023-03-14T06:58:16;31.43;;;15.13;;
66927;SDS011;59882;45.624;11.698;2023-03-14T07:00:42;31.35;;;19.33;;
66927;SDS011;59882;45.624;11.698;2023-03-14T07:03:08;33.70;;;20.50;;
66927;SDS011;59882;45.624;11.698;2023-03-14T07:05:34;26.50;;;15.80;;
66927;SDS011;59882;45.624;11.698;2023-03-14T07:08:00;26.35;;;15.77;;
66927;SDS011;59882;45.624;11.698;2023-03-14T07:10:26;23.33;;;15.50;;
66927;SDS011;59882;45.624;11.698;2023-03-14T07:12:51;23.90;;;15.60;;
66927;SDS011;59882;45.624;11.698;2023-03-14T07:15:18;23.83;;;16.10;;
66927;SDS011;59882;45.624;11.698;2023-03-14T07:17:44;23.25;;;16.50;;
66927;SDS011;59882;45.624;11.698;2023-03-14T07:20:12;27.08;;;17.05;;
66927;SDS011;59882;45.624;11.698;2023-03-14T07:22:38;22.65;;;15.70;;
66927;SDS011;59882;45.624;11.698;2023-03-14T07:25:04;31.03;;;19.53;;
66927;SDS011;59882;45.624;11.698;2023-03-14T07:27:30;24.77;;;15.65;;
66927;SDS011;59882;45.624;11.698;2023-03-14T07:29:56;27.20;;;17.93;;
66927;SDS011;59882;45.624;11.698;2023-03-14T07:32:22;30.15;;;20.02;;
66927;SDS011;59882;45.624;11.698;2023-03-14T07:34:47;30.43;;;18.43;;
66927;SDS011;59882;45.624;11.698;2023-03-14T07:37:13;21.83;;;15.83;;
66927;SDS011;59882;45.624;11.698;2023-03-14T07:39:38;30.10;;;17.77;;
66927;SDS011;59882;45.624;11.698;2023-03-14T07:42:04;29.43;;;20.00;;
66927;SDS011;59882;45.624;11.698;2023-03-14T07:44:30;32.03;;;21.02;;
66927;SDS011;59882;45.624;11.698;2023-03-14T07:46:55;26.37;;;16.93;;
66927;SDS011;59882;45.624;11.698;2023-03-14T07:49:21;27.75;;;16.88;;
66927;SDS011;59882;45.624;11.698;2023-03-14T07:51:47;24.83;;;15.60;;
66927;SDS011;59882;45.624;11.698;2023-03-14T07:54:13;21.77;;;15.88;;
66927;SDS011;59882;45.624;11.698;2023-03-14T07:56:39;26.70;;;16.67;;
66927;SDS011;59882;45.624;11.698;2023-03-14T07:59:04;25.88;;;16.23;;
66927;SDS011;59882;45.624;11.698;2023-03-14T08:01:30;24.77;;;16.10;;
66927;SDS011;59882;45.624;11.698;2023-03-14T08:03:56;23.15;;;15.13;;
66927;SDS011;59882;45.624;11.698;2023-03-14T08:06:21;26.97;;;14.70;;
66927;SDS011;59882;45.624;11.698;2023-03-14T08:08:47;21.45;;;14.50;;
66927;SDS011;59882;45.624;11.698;2023-03-14T08:11:12;23.00;;;14.67;;
66927;SDS011;59882;45.624;11.698;2023-03-14T08:13:38;22.25;;;13.98;;
66927;SDS011;59882;45.624;11.698;2023-03-14T08:16:05;21.07;;;14.30;;
66927;SDS011;59882;45.624;11.698;2023-03-14T08:18:31;24.08;;;14.65;;
66927;SDS011;59882;45.624;11.698;2023-03-14T08:20:57;22.25;;;14.55;;
66927;SDS011;59882;45.624;11.698;2023-03-14T08:23:23;23.17;;;14.68;;
66927;SDS011;59882;45.624;11.698;2023-03-14T08:25:49;23.43;;;14.50;;
66927;SDS011;59882;45.624;11.698;2023-03-14T08:28:15;20.83;;;13.63;;
66927;SDS011;59882;45.624;11.698;2023-03-14T08:30:41;24.60;;;13.85;;
66927;SDS011;59882;45.624;11.698;2023-03-14T08:33:07;19.43;;;13.87;;
66927;SDS011;59882;45.624;11.698;2023-03-14T08:35:32;21.13;;;13.45;;
66927;SDS011;59882;45.624;11.698;2023-03-14T08:37:58;22.93;;;14.20;;
66927;SDS011;59882;45.624;11.698;2023-03-14T08:40:24;24.83;;;13.88;;
66927;SDS011;59882;45.624;11.698;2023-03-14T08:42:49;20.83;;;13.77;;
66927;SDS011;59882;45.624;11.698;2023-03-14T08:45:15;28.77;;;16.50;;
66927;SDS011;59882;45.624;11.698;2023-03-14T08:47:42;24.83;;;16.60;;
66927;SDS011;59882;45.624;11.698;2023-03-14T08:50:08;24.57;;;16.07;;
66927;SDS011;59882;45.624;11.698;2023-03-14T08:52:35;23.73;;;15.57;;
66927;SDS011;59882;45.624;11.698;2023-03-14T08:55:02;25.17;;;15.95;;
66927;SDS011;59882;45.624;11.698;2023-03-14T08:57:28;22.00;;;15.35;;
66927;SDS011;59882;45.624;11.698;2023-03-14T08:59:54;21.67;;;15.50;;
66927;SDS011;59882;45.624;11.698;2023-03-14T09:02:21;21.75;;;14.35;;
66927;SDS011;59882;45.624;11.698;2023-03-14T09:04:47;25.23;;;14.32;;
66927;SDS011;59882;45.624;11.698;2023-03-14T09:07:14;20.67;;;14.70;;
66927;SDS011;59882;45.624;11.698;2023-03-14T09:09:40;21.87;;;15.63;;
66927;SDS011;59882;45.624;11.698;2023-03-14T09:12:05;25.17;;;15.30;;
66927;SDS011;59882;45.624;11.698;2023-03-14T09:14:31;23.55;;;13.82;;
66927;SDS011;59882;45.624;11.698;2023-03-14T09:16:57;25.97;;;14.53;;
66927;SDS011;59882;45.624;11.698;2023-03-14T09:19:23;22.33;;;14.10;;
66927;SDS011;59882;45.624;11.698;2023-03-14T09:21:48;21.43;;;13.67;;
66927;SDS011;59882;45.624;11.698;2023-03-14T09:24:14;25.08;;;13.43;;
66927;SDS011;59882;45.624;11.698;2023-03-14T09:26:40;21.33;;;13.25;;
66927;SDS011;59882;45.624;11.698;2023-03-14T09:29:06;21.47;;;13.03;;
66927;SDS011;59882;45.624;11.698;2023-03-14T09:31:32;20.60;;;14.52;;
66927;SDS011;59882;45.624;11.698;2023-03-14T09:33:58;17.80;;;13.57;;
66927;SDS011;59882;45.624;11.698;2023-03-14T09:36:24;24.10;;;14.02;;
66927;SDS011;59882;45.624;11.698;2023-03-14T09:38:50;20.98;;;13.25;;
66927;SDS011;59882;45.624;11.698;2023-03-14T09:43:53;19.38;;;12.35;;
66927;SDS011;59882;45.624;11.698;2023-03-14T09:46:30;16.52;;;12.00;;
66927;SDS011;59882;45.624;11.698;2023-03-14T09:49:00;17.17;;;12.17;;
66927;SDS011;59882;45.624;11.698;2023-03-14T09:51:25;20.73;;;13.65;;
66927;SDS011;59882;45.624;11.698;2023-03-14T09:53:52;18.73;;;12.85;;
66927;SDS011;59882;45.624;11.698;2023-03-14T09:56:24;19.10;;;12.00;;
66927;SDS011;59882;45.624;11.698;2023-03-14T09:58:54;18.73;;;11.80;;
66927;SDS011;59882;45.624;11.698;2023-03-14T10:01:26;20.10;;;12.27;;
66927;SDS011;59882;45.624;11.698;2023-03-14T10:03:54;20.45;;;11.40;;
66927;SDS011;59882;45.624;11.698;2023-03-14T10:06:26;18.85;;;12.18;;
66927;SDS011;59882;45.624;11.698;2023-03-14T10:08:54;18.23;;;13.00;;
66927;SDS011;59882;45.624;11.698;2023-03-14T10:11:21;20.70;;;12.27;;
66927;SDS011;59882;45.624;11.698;2023-03-14T10:13:49;21.20;;;12.40;;
66927;SDS011;59882;45.624;11.698;2023-03-14T10:16:41;18.73;;;12.30;;
66927;SDS011;59882;45.624;11.698;2023-03-14T10:19:15;18.60;;;12.75;;
66927;SDS011;59882;45.624;11.698;2023-03-14T10:21:49;17.80;;;12.17;;
66927;SDS011;59882;45.624;11.698;2023-03-14T10:24:31;19.60;;;11.80;;
66927;SDS011;59882;45.624;11.698;2023-03-14T10:27:01;15.90;;;11.38;;
66927;SDS011;59882;45.624;11.698;2023-03-14T10:29:31;15.35;;;10.75;;
66927;SDS011;59882;45.624;11.698;2023-03-14T10:37:06;14.95;;;11.02;;
66927;SDS011;59882;45.624;11.698;2023-03-14T10:39:47;17.92;;;11.55;;
66927;SDS011;59882;45.624;11.698;2023-03-14T10:42:23;16.85;;;11.45;;
66927;SDS011;59882;45.624;11.698;2023-03-14T10:44:55;19.65;;;12.32;;
66927;SDS011;59882;45.624;11.698;2023-03-14T10:47:24;15.60;;;11.27;;
66927;SDS011;59882;45.624;11.698;2023-03-14T10:49:53;20.33;;;11.57;;
66927;SDS011;59882;45.624;11.698;2023-03-14T10:52:28;15.95;;;10.52;;
66927;SDS011;59882;45.624;11.698;2023-03-14T10:54:59;18.60;;;10.88;;
66927;SDS011;59882;45.624;11.698;2023-03-14T10:57:27;18.38;;;11.55;;
66927;SDS011;59882;45.624;11.698;2023-03-14T10:59:53;19.77;;;11.63;;
66927;SDS011;59882;45.624;11.698;2023-03-14T11:02:33;19.52;;;11.90;;
66927;SDS011;59882;45.624;11.698;2023-03-14T11:06:02;19.10;;;11.10;;
66927;SDS011;59882;45.624;11.698;2023-03-14T11:08:17;17.63;;;10.77;;
66927;SDS011;59882;45.624;11.698;2023-03-14T11:13:43;18.38;;;9.93;;
66927;SDS011;59882;45.624;11.698;2023-03-14T11:19:03;18.10;;;9.55;;
66927;SDS011;59882;45.624;11.698;2023-03-14T11:25:03;18.58;;;9.52;;
66927;SDS011;59882;45.624;11.698;2023-03-14T11:27:08;16.50;;;9.10;;
66927;SDS011;59882;45.624;11.698;2023-03-14T11:35:55;19.67;;;10.40;;
66927;SDS011;59882;45.624;11.698;2023-03-14T11:38:35;16.48;;;9.13;;
66927;SDS011;59882;45.624;11.698;2023-03-14T11:41:02;16.10;;;9.73;;
66927;SDS011;59882;45.624;11.698;2023-03-14T11:43:35;19.85;;;9.68;;
66927;SDS011;59882;45.624;11.698;2023-03-14T11:46:25;17.30;;;8.98;;
66927;SDS011;59882;45.624;11.698;2023-03-14T11:51:46;17.58;;;9.60;;
66927;SDS011;59882;45.624;11.698;2023-03-14T11:56:54;19.50;;;10.10;;
66927;SDS011;59882;45.624;11.698;2023-03-14T12:10:23;19.80;;;9.13;;
66927;SDS011;59882;45.624;11.698;2023-03-14T12:12:49;22.23;;;11.68;;
66927;SDS011;59882;45.624;11.698;2023-03-14T12:15:19;23.40;;;12.20;;
66927;SDS011;59882;45.624;11.698;2023-03-14T12:17:46;22.80;;;13.20;;
66927;SDS011;59882;45.624;11.698;2023-03-14T12:20:18;20.35;;;11.82;;
66927;SDS011;59882;45.624;11.698;2023-03-14T12:25:23;14.82;;;8.68;;
66927;SDS011;59882;45.624;11.698;2023-03-14T12:30:28;19.13;;;10.43;;
66927;SDS011;59882;45.624;11.698;2023-03-14T12:35:41;14.98;;;8.50;;
66927;SDS011;59882;45.624;11.698;2023-03-14T12:38:12;18.35;;;8.73;;
66927;SDS011;59882;45.624;11.698;2023-03-14T12:46:57;17.08;;;8.55;;
66927;SDS011;59882;45.624;11.698;2023-03-14T12:49:30;13.63;;;8.10;;
66927;SDS011;59882;45.624;11.698;2023-03-14T12:52:00;18.05;;;10.40;;
66927;SDS011;59882;45.624;11.698;2023-03-14T13:00:17;14.80;;;7.43;;
66927;SDS011;59882;45.624;11.698;2023-03-14T13:02:46;15.80;;;7.40;;
66927;SDS011;59882;45.624;11.698;2023-03-14T13:05:23;15.50;;;7.00;;
66927;SDS011;59882;45.624;11.698;2023-03-14T13:10:19;15.10;;;7.18;;
66927;SDS011;59882;45.624;11.698;2023-03-14T13:12:57;16.67;;;7.00;;
66927;SDS011;59882;45.624;11.698;2023-03-14T13:15:46;20.40;;;7.72;;
66927;SDS011;59882;45.624;11.698;2023-03-14T13:21:06;14.07;;;8.00;;
66927;SDS011;59882;45.624;11.698;2023-03-14T13:23:39;15.95;;;6.93;;
66927;SDS011;59882;45.624;11.698;2023-03-14T13:26:09;13.70;;;6.43;;
66927;SDS011;59882;45.624;11.698;2023-03-14T13:28:40;15.52;;;6.43;;
66927;SDS011;59882;45.624;11.698;2023-03-14T13:31:12;14.00;;;7.40;;
66927;SDS011;59882;45.624;11.698;2023-03-14T13:33:56;13.63;;;7.07;;
66927;SDS011;59882;45.624;11.698;2023-03-14T13:36:23;13.80;;;7.07;;
66927;SDS011;59882;45.624;11.698;2023-03-14T13:38:54;16.42;;;7.25;;
66927;SDS011;59882;45.624;11.698;2023-03-14T13:41:22;15.43;;;6.47;;
66927;SDS011;59882;45.624;11.698;2023-03-14T13:43:49;12.67;;;5.53;;
66927;SDS011;59882;45.624;11.698;2023-03-14T13:46:22;14.13;;;5.63;;
66927;SDS011;59882;45.624;11.698;2023-03-14T13:48:52;12.18;;;4.50;;
66927;SDS011;59882;45.624;11.698;2023-03-14T13:51:26;10.07;;;4.00;;
66927;SDS011;59882;45.624;11.698;2023-03-14T13:53:57;11.00;;;4.85;;
66927;SDS011;59882;45.624;11.698;2023-03-14T13:56:25;13.45;;;4.53;;
66927;SDS011;59882;45.624;11.698;2023-03-14T13:58:53;11.80;;;5.07;;
66927;SDS011;59882;45.624;11.698;2023-03-14T14:01:37;14.80;;;6.65;;
66927;SDS011;59882;45.624;11.698;2023-03-14T14:04:07;22.30;;;9.67;;
66927;SDS011;59882;45.624;11.698;2023-03-14T14:06:39;14.70;;;6.80;;
66927;SDS011;59882;45.624;11.698;2023-03-14T14:09:15;43.90;;;6.25;;
66927;SDS011;59882;45.624;11.698;2023-03-14T14:11:48;10.18;;;4.13;;
66927;SDS011;59882;45.624;11.698;2023-03-14T14:14:36;6.75;;;4.20;;
66927;SDS011;59882;45.624;11.698;2023-03-14T14:17:45;10.70;;;4.03;;
66927;SDS011;59882;45.624;11.698;2023-03-14T14:20:57;12.05;;;4.32;;
66927;SDS011;59882;45.624;11.698;2023-03-14T14:23:11;10.20;;;4.90;;
66927;SDS011;59882;45.624;11.698;2023-03-14T14:25:40;9.63;;;4.07;;
66927;SDS011;59882;45.624;11.698;2023-03-14T14:28:14;11.13;;;4.75;;
66927;SDS011;59882;45.624;11.698;2023-03-14T14:30:40;11.10;;;4.43;;
66927;SDS011;59882;45.624;11.698;2023-03-14T14:33:24;8.60;;;4.10;;
66927;SDS011;59882;45.624;11.698;2023-03-14T14:35:50;10.48;;;4.03;;
66927;SDS011;59882;45.624;11.698;2023-03-14T14:38:19;9.20;;;4.10;;
66927;SDS011;59882;45.624;11.698;2023-03-14T14:40:47;10.23;;;3.95;;
66927;SDS011;59882;45.624;11.698;2023-03-14T14:43:20;9.77;;;4.10;;
66927;SDS011;59882;45.624;11.698;2023-03-14T14:45:49;8.55;;;3.72;;
66927;SDS011;59882;45.624;11.698;2023-03-14T14:48:18;9.82;;;4.05;;
66927;SDS011;59882;45.624;11.698;2023-03-14T14:50:49;9.33;;;4.20;;
66927;SDS011;59882;45.624;11.698;2023-03-14T14:53:22;11.45;;;4.43;;
66927;SDS011;59882;45.624;11.698;2023-03-14T14:55:51;11.88;;;4.68;;
66927;SDS011;59882;45.624;11.698;2023-03-14T14:58:26;9.98;;;4.25;;
66927;SDS011;59882;45.624;11.698;2023-03-14T15:01:07;10.48;;;4.43;;
66927;SDS011;59882;45.624;11.698;2023-03-14T15:03:45;8.53;;;3.57;;
66927;SDS011;59882;45.624;11.698;2023-03-14T15:06:14;13.85;;;4.28;;
66927;SDS011;59882;45.624;11.698;2023-03-14T15:08:42;13.93;;;4.85;;
66927;SDS011;59882;45.624;11.698;2023-03-14T15:11:11;12.45;;;4.55;;
66927;SDS011;59882;45.624;11.698;2023-03-14T15:13:42;9.27;;;3.85;;
66927;SDS011;59882;45.624;11.698;2023-03-14T15:16:09;11.33;;;4.30;;
66927;SDS011;59882;45.624;11.698;2023-03-14T15:18:36;11.57;;;4.60;;
66927;SDS011;59882;45.624;11.698;2023-03-14T15:21:02;9.00;;;4.07;;
66927;SDS011;59882;45.624;11.698;2023-03-14T15:23:28;12.60;;;4.53;;
66927;SDS011;59882;45.624;11.698;2023-03-14T15:25:53;13.25;;;4.60;;
66927;SDS011;59882;45.624;11.698;2023-03-14T15:28:23;11.27;;;4.63;;
66927;SDS011;59882;45.624;11.698;2023-03-14T15:30:50;10.68;;;4.68;;
66927;SDS011;59882;45.624;11.698;2023-03-14T15:33:18;9.57;;;4.30;;
66927;SDS011;59882;45.624;11.698;2023-03-14T15:35:44;10.73;;;5.05;;
66927;SDS011;59882;45.624;11.698;2023-03-14T15:38:10;10.80;;;4.70;;